Dime Box, Texas
Current Conditions -  °F | °C
As of 4:55 PM on Saturday 20 Dec 2014 (Local Time) from KRWV Reporting Station
Overcast Overcast  
Wind Chill: 52°   Ceiling: 1400
Heat Index: 52°   Visibility: 8mi
Dew Point: 48°   Wind: 5mph
Humidity: 88%   Direction: 30°NNE
Pressure: 30.19"   Gusts: NA
Location:  30.36°N, 96.82°W
Report Text: KRWV 202255Z AUTO 03004KT 8SM BKN014 BKN018 OVC026 11/09 A3019 RMK AO2
Loading
Personal Weather Stations






























Interactive Weather Map New forecast layout! Learn more

10-Day Weather Forecast

Advertisements
Track Severe Weather on mobile